Frankfort, Michigan
Current Conditions -  °F | °C
As of 12:11 PM on Friday 24 Oct 2014 (Local Time) from KFKS Reporting Station
Haze Haze  
Wind Chill: 52°   Ceiling: 400
Heat Index: 52°   Visibility: 1.5mi
Dew Point: 49°   Wind: 5mph
Humidity: 89%   Direction: 230°SW
Pressure: 30.01"   Gusts: NA
Location:  44.63°N, 86.23°W
Report Text: KFKS 241611Z AUTO 23004KT 1 1/2SM BR OVC004 11/09 A3001 RMK AO2 T01110093
Loading
Personal Weather Stations






























Interactive Weather Map
Tropical Storm Tracking
New forecast layout! Learn more

10-Day Weather Forecast

Advertisements
Track Severe Weather on mobile